createdAt,value
2018-07-27T00:01:34.176Z,99861.31
2018-07-27T00:04:03.973Z,99869.47
2018-07-27T00:06:33.701Z,99871.91
2018-07-27T00:09:03.751Z,99871.39
2018-07-27T00:11:33.293Z,99866.26
2018-07-27T00:14:03.298Z,99860.82
2018-07-27T00:16:33.812Z,99864.10
2018-07-27T00:19:03.862Z,99865.45
2018-07-27T00:21:33.846Z,99860.03
2018-07-27T00:24:03.497Z,99869.27
2018-07-27T00:26:33.355Z,99869.53
2018-07-27T00:29:03.485Z,99865.22
2018-07-27T00:31:33.010Z,99864.96
2018-07-27T00:34:02.491Z,99863.58
2018-07-27T00:36:32.234Z,99863.86
2018-07-27T00:39:01.994Z,99857.34
2018-07-27T00:41:31.524Z,99863.84
2018-07-27T00:44:01.341Z,99868.47
2018-07-27T00:46:31.073Z,99865.20
2018-07-27T00:49:01.301Z,99868.16
2018-07-27T00:51:30.956Z,99862.70
2018-07-27T00:54:00.703Z,99862.16
2018-07-27T00:56:30.494Z,99856.20
2018-07-27T00:59:00.250Z,99860.27
2018-07-27T01:01:30.017Z,99862.45
2018-07-27T01:03:59.785Z,99859.72
2018-07-27T01:06:29.523Z,99867.33
2018-07-27T01:08:58.980Z,99863.53
2018-07-27T01:11:29.433Z,99862.70
2018-07-27T01:13:59.232Z,99859.23
2018-07-27T01:16:28.996Z,99864.39
2018-07-27T01:18:58.728Z,99861.96
2018-07-27T01:21:28.693Z,99861.96
2018-07-27T01:23:58.413Z,99861.69
2018-07-27T01:26:28.146Z,99860.05
2018-07-27T01:28:58.028Z,99854.09
2018-07-27T01:31:27.735Z,99849.77
2018-07-27T01:33:57.462Z,99857.61
2018-07-27T01:36:27.180Z,99857.89
2018-07-27T01:38:56.988Z,99863.31
2018-07-27T01:41:26.854Z,99861.15
2018-07-27T01:43:56.569Z,99853.56
2018-07-27T01:46:26.713Z,99849.74
2018-07-27T01:48:56.437Z,99850.82
2018-07-27T01:51:26.175Z,99853.24
2018-07-27T01:53:55.924Z,99852.95
2018-07-27T01:56:25.638Z,99852.70
2018-07-27T01:58:55.344Z,99857.29
2018-07-27T02:01:25.112Z,99854.31
2018-07-27T02:03:54.833Z,99854.02
2018-07-27T02:06:24.619Z,99841.55
2018-07-27T02:08:54.347Z,99848.84
2018-07-27T02:11:23.804Z,99852.66
2018-07-27T02:13:53.568Z,99858.91
2018-07-27T02:16:23.329Z,99862.44
2018-07-27T02:18:53.081Z,99859.72
2018-07-27T02:21:22.856Z,99860.28
2018-07-27T02:23:52.588Z,99852.67
2018-07-27T02:26:22.793Z,99858.31
2018-07-27T02:28:52.524Z,99856.97
2018-07-27T02:31:22.278Z,99859.65
2018-07-27T02:33:52.033Z,99853.94
2018-07-27T02:36:22.006Z,99854.17
2018-07-27T02:38:51.728Z,99851.25
2018-07-27T02:41:21.457Z,99850.41
2018-07-27T02:43:51.321Z,99854.20
2018-07-27T02:46:21.041Z,99852.90
2018-07-27T02:48:51.161Z,99857.83
2018-07-27T02:51:21.092Z,99855.39
2018-07-27T02:53:50.972Z,99849.16
2018-07-27T02:56:20.753Z,99851.04
2018-07-27T02:58:50.520Z,99847.78
2018-07-27T03:01:20.608Z,99851.59
2018-07-27T03:03:50.338Z,99853.78
2018-07-27T03:06:19.780Z,99854.86
2018-07-27T03:08:49.524Z,99848.60
2018-07-27T03:11:19.341Z,99851.86
2018-07-27T03:13:49.056Z,99856.45
2018-07-27T03:16:18.867Z,99858.34
2018-07-27T03:18:48.332Z,99855.91
2018-07-27T03:21:18.092Z,99862.98
2018-07-27T03:23:47.861Z,99853.50
2018-07-27T03:26:17.377Z,99855.38
2018-07-27T03:28:47.100Z,99853.76
2018-07-27T03:31:16.846Z,99857.25
2018-07-27T03:33:46.614Z,99857.00
2018-07-27T03:36:16.436Z,99854.84
2018-07-27T03:38:46.174Z,99862.98
2018-07-27T03:41:16.252Z,99858.64
2018-07-27T03:43:46.018Z,99854.56
2018-07-27T03:46:15.798Z,99853.75
2018-07-27T03:48:45.872Z,99862.17
2018-07-27T03:51:15.657Z,99866.51
2018-07-27T03:53:45.384Z,99859.50
2018-07-27T03:56:15.104Z,99866.58
2018-07-27T03:58:44.868Z,99868.47
2018-07-27T04:01:14.573Z,99869.00
2018-07-27T04:03:44.300Z,99866.56
2018-07-27T04:06:14.021Z,99870.63
2018-07-27T04:08:43.762Z,99869.00
2018-07-27T04:11:13.522Z,99866.84
2018-07-27T04:13:43.285Z,99865.20
2018-07-27T04:16:13.249Z,99870.92
2018-07-27T04:18:43.044Z,99866.83
2018-07-27T04:21:12.769Z,99862.47
2018-07-27T04:23:42.516Z,99859.18
2018-07-27T04:26:12.309Z,99860.80
2018-07-27T04:28:42.208Z,99858.11
2018-07-27T04:31:12.000Z,99867.58
2018-07-27T04:33:41.742Z,99867.03
2018-07-27T04:36:11.859Z,99871.88
2018-07-27T04:38:42.261Z,99871.84
2018-07-27T04:44:12.096Z,99862.79
2018-07-27T04:46:41.894Z,99866.53
2018-07-27T04:49:11.760Z,99859.70
2018-07-27T04:51:41.535Z,99866.41
2018-07-27T04:54:11.273Z,99862.57
2018-07-27T04:56:41.093Z,99860.33
2018-07-27T04:59:11.062Z,99872.23
2018-07-27T05:01:40.847Z,99874.12
2018-07-27T05:04:11.382Z,99875.69
2018-07-27T05:06:41.146Z,99875.69
2018-07-27T05:09:15.977Z,99875.16
2018-07-27T05:24:00.793Z,99883.75
2018-07-27T05:26:31.360Z,99882.78
2018-07-27T05:29:01.728Z,99881.59
2018-07-27T05:31:32.137Z,99885.17
2018-07-27T05:34:02.455Z,99884.23
2018-07-27T05:36:32.828Z,99893.13
2018-07-27T05:39:03.189Z,99878.54
2018-07-27T05:41:33.245Z,99888.67
2018-07-27T05:44:03.952Z,99891.50
2018-07-27T05:46:34.615Z,99894.44
2018-07-27T05:49:05.433Z,99893.42
2018-07-27T05:51:36.125Z,99892.42
2018-07-27T05:54:06.798Z,99895.08
2018-07-27T05:56:37.188Z,99889.55
2018-07-27T05:59:07.550Z,99888.95
2018-07-27T06:01:37.949Z,99891.20
2018-07-27T06:04:08.297Z,99895.33
2018-07-27T06:06:38.600Z,99891.75
2018-07-27T06:09:10.654Z,99894.66
2018-07-27T06:11:40.944Z,99898.69
2018-07-27T06:14:11.487Z,99905.73
2018-07-27T06:16:41.849Z,99907.70
2018-07-27T06:19:12.193Z,99896.56
2018-07-27T06:21:42.669Z,99895.69
2018-07-27T06:24:12.768Z,99911.34
2018-07-27T06:26:43.030Z,99909.88
2018-07-27T06:29:13.102Z,99904.84
2018-07-27T06:31:44.057Z,99906.78
2018-07-27T06:34:14.501Z,99909.56
2018-07-27T06:36:44.804Z,99913.14
2018-07-27T06:39:15.244Z,99916.44
2018-07-27T06:41:45.738Z,99912.49
2018-07-27T06:44:16.165Z,99924.89
2018-07-27T06:46:46.457Z,99910.64
2018-07-27T06:49:16.768Z,99912.48
2018-07-27T06:51:47.076Z,99912.33
2018-07-27T06:54:17.410Z,99913.91
2018-07-27T06:56:47.662Z,99904.09
2018-07-27T06:59:17.949Z,99904.75
2018-07-27T07:01:48.224Z,99902.30
2018-07-27T07:04:18.552Z,99904.18
2018-07-27T07:06:48.866Z,99904.11
2018-07-27T07:09:19.144Z,99907.26
2018-07-27T07:11:49.460Z,99907.52
2018-07-27T07:14:19.745Z,99912.83
2018-07-27T07:16:50.082Z,99906.58
2018-07-27T07:19:20.353Z,99906.98
2018-07-27T07:21:50.360Z,99901.53
2018-07-27T07:24:20.360Z,99909.69
2018-07-27T07:26:50.351Z,99903.02
2018-07-27T07:29:20.373Z,99901.58
2018-07-27T07:31:50.684Z,99907.91
2018-07-27T07:34:20.984Z,99906.80
2018-07-27T07:36:51.269Z,99906.31
2018-07-27T07:39:21.634Z,99913.78
2018-07-27T07:41:51.952Z,99911.41
2018-07-27T07:44:22.372Z,99908.30
2018-07-27T07:46:52.732Z,99901.72
2018-07-27T07:49:23.077Z,99904.22
2018-07-27T07:51:53.598Z,99908.20
2018-07-27T07:54:23.890Z,99905.91
2018-07-27T07:56:54.312Z,99903.36
2018-07-27T07:59:24.611Z,99901.02
2018-07-27T08:01:54.929Z,99901.03
2018-07-27T08:04:25.248Z,99905.84
2018-07-27T08:07:01.703Z,99898.45
2018-07-27T08:09:31.773Z,99897.06
2018-07-27T08:12:01.833Z,99897.45
2018-07-27T08:14:31.833Z,99898.81
2018-07-27T08:17:01.834Z,99896.83
2018-07-27T08:19:32.129Z,99891.46
2018-07-27T08:22:02.462Z,99892.09
2018-07-27T08:24:32.986Z,99891.50
2018-07-27T08:27:05.369Z,99886.59
2018-07-27T08:29:39.864Z,99887.31
2018-07-27T08:32:09.980Z,99893.52
2018-07-27T08:34:40.377Z,99889.27
2018-07-27T08:37:11.160Z,99892.39
2018-07-27T08:39:42.977Z,99879.30
2018-07-27T08:42:13.488Z,99888.41
2018-07-27T08:44:44.059Z,99881.45
2018-07-27T08:47:14.449Z,99879.11
2018-07-27T08:49:45.262Z,99880.14
2018-07-27T08:52:15.836Z,99876.76
2018-07-27T08:54:46.202Z,99867.81
2018-07-27T08:57:16.520Z,99870.91
2018-07-27T08:59:46.924Z,99870.81
2018-07-27T09:02:17.144Z,99864.87
2018-07-27T09:04:47.436Z,99860.92
2018-07-27T09:07:17.788Z,99866.35
2018-07-27T09:09:47.919Z,99865.47
2018-07-27T09:12:18.322Z,99856.31
2018-07-27T09:14:48.621Z,99858.53
2018-07-27T09:17:19.076Z,99856.42
2018-07-27T09:19:49.562Z,99858.73
2018-07-27T09:22:20.237Z,99857.09
2018-07-27T09:24:50.702Z,99857.74
2018-07-27T09:27:21.094Z,99850.09
2018-07-27T09:29:51.372Z,99832.13
2018-07-27T09:32:21.676Z,99834.53
2018-07-27T09:34:51.984Z,99838.54
2018-07-27T09:37:22.265Z,99824.28
2018-07-27T09:39:52.618Z,99823.05
2018-07-27T09:42:22.929Z,99817.30
2018-07-27T09:44:53.377Z,99817.92
2018-07-27T09:47:23.705Z,99815.33
2018-07-27T09:49:53.737Z,99820.38
2018-07-27T09:52:24.037Z,99814.15
2018-07-27T09:54:54.345Z,99813.55
2018-07-27T09:57:24.966Z,99811.05
2018-07-27T09:59:55.966Z,99806.58
2018-07-27T10:02:26.255Z,99808.02
2018-07-27T10:04:56.584Z,99801.97
2018-07-27T10:07:26.868Z,99795.77
2018-07-27T10:09:57.190Z,99794.18
2018-07-27T10:12:27.473Z,99794.92
2018-07-27T10:14:57.753Z,99790.01
2018-07-27T10:17:28.034Z,99798.30
2018-07-27T10:19:58.308Z,99793.07
2018-07-27T10:22:28.633Z,99790.35
2018-07-27T10:24:58.928Z,99786.88
2018-07-27T10:27:29.265Z,99787.55
2018-07-27T10:29:59.540Z,99792.48
2018-07-27T10:32:29.854Z,99795.06
2018-07-27T10:35:00.137Z,99793.95
2018-07-27T10:37:31.156Z,99781.91
2018-07-27T10:40:01.613Z,99784.50
2018-07-27T10:42:31.928Z,99780.05
2018-07-27T10:45:02.345Z,99775.90
2018-07-27T10:47:32.641Z,99772.09
2018-07-27T10:50:03.452Z,99776.32
2018-07-27T10:52:33.868Z,99776.02
2018-07-27T10:55:04.644Z,99776.48
2018-07-27T10:57:34.922Z,99779.92
2018-07-27T11:00:09.869Z,99770.75
2018-07-27T11:02:40.464Z,99782.91
2018-07-27T11:05:11.509Z,99777.63
2018-07-27T11:07:42.174Z,99780.53
2018-07-27T11:10:12.952Z,99782.56
2018-07-27T11:12:43.108Z,99785.48
2018-07-27T11:15:13.460Z,99781.52
2018-07-27T11:17:44.044Z,99779.86
2018-07-27T11:20:14.957Z,99776.77
2018-07-27T11:22:45.428Z,99774.63
2018-07-27T11:25:15.797Z,99768.56
2018-07-27T11:27:46.065Z,99769.66
2018-07-27T11:30:16.396Z,99760.58
2018-07-27T11:32:46.680Z,99759.41
2018-07-27T11:35:16.980Z,99760.73
2018-07-27T11:37:47.295Z,99757.13
2018-07-27T11:40:17.936Z,99759.31
2018-07-27T11:42:48.260Z,99754.75
2018-07-27T11:45:18.744Z,99753.93
2018-07-27T11:47:49.041Z,99756.07
2018-07-27T11:50:19.372Z,99755.74
2018-07-27T11:52:49.648Z,99757.72
2018-07-27T11:55:19.956Z,99758.66
2018-07-27T11:57:50.236Z,99748.71
2018-07-27T12:00:20.530Z,99741.58
2018-07-27T12:02:50.877Z,99736.45
2018-07-27T12:05:21.153Z,99736.70
2018-07-27T12:07:51.481Z,99742.54
2018-07-27T12:10:21.764Z,99732.33
2018-07-27T12:12:52.085Z,99729.57
2018-07-27T12:15:22.372Z,99722.44
2018-07-27T12:17:52.672Z,99724.03
2018-07-27T12:20:22.985Z,99722.52
2018-07-27T12:22:53.280Z,99721.00
2018-07-27T12:25:23.319Z,99710.87
2018-07-27T12:27:53.603Z,99713.14
2018-07-27T12:30:23.708Z,99718.84
2018-07-27T12:32:53.748Z,99707.36
2018-07-27T12:35:24.076Z,99706.56
2018-07-27T12:37:54.401Z,99721.34
2018-07-27T12:40:25.328Z,99718.06
2018-07-27T12:42:55.645Z,99726.77
2018-07-27T12:45:26.152Z,99732.48
2018-07-27T12:47:56.542Z,99727.81
2018-07-27T12:50:26.909Z,99733.81
2018-07-27T12:52:57.204Z,99751.50
2018-07-27T12:55:27.472Z,99755.66
2018-07-27T12:57:57.724Z,99768.59
2018-07-27T13:00:28.013Z,99770.67
2018-07-27T13:02:58.720Z,99786.88
2018-07-27T13:05:28.663Z,99786.52
2018-07-27T13:07:58.320Z,99793.34
2018-07-27T13:10:28.648Z,99789.30
2018-07-27T13:12:58.905Z,99791.26
2018-07-27T13:15:28.666Z,99792.58
2018-07-27T13:17:58.940Z,99791.55
2018-07-27T13:20:48.160Z,99789.81
2018-07-27T13:23:18.987Z,99780.05
2018-07-27T13:28:49.868Z,99771.25
2018-07-27T13:31:23.927Z,99771.05
2018-07-27T13:34:06.225Z,99756.70
2018-07-27T13:36:35.732Z,99751.61
2018-07-27T13:39:08.111Z,99755.44
2018-07-27T13:41:37.939Z,99746.23
2018-07-27T13:44:07.661Z,99752.13
2018-07-27T13:46:37.123Z,99743.91
2018-07-27T13:49:06.950Z,99749.25
2018-07-27T13:51:36.944Z,99742.87
2018-07-27T13:54:07.510Z,99737.64
2018-07-27T13:56:37.631Z,99744.13
2018-07-27T13:59:07.673Z,99749.63
2018-07-27T14:01:37.384Z,99749.27
2018-07-27T14:04:07.203Z,99751.59
2018-07-27T14:06:37.387Z,99754.78
2018-07-27T14:09:10.077Z,99756.27
2018-07-27T14:11:41.377Z,99761.62
2018-07-27T14:14:12.113Z,99760.14
2018-07-27T14:16:42.934Z,99766.61
2018-07-27T14:19:13.556Z,99763.47
2018-07-27T14:21:44.316Z,99765.72
2018-07-27T14:24:15.069Z,99766.79
2018-07-27T14:26:45.268Z,99770.63
2018-07-27T14:29:15.663Z,99778.41
2018-07-27T14:31:46.234Z,99782.63
2018-07-27T14:34:16.522Z,99778.87
2018-07-27T14:37:05.179Z,99780.16
2018-07-27T14:39:42.018Z,99772.19
2018-07-27T14:42:13.224Z,99769.08
2018-07-27T14:44:44.604Z,99767.92
2018-07-27T14:47:15.057Z,99768.95
2018-07-27T14:49:45.772Z,99764.00
2018-07-27T14:52:17.092Z,99760.27
2018-07-27T14:54:48.099Z,99756.13
2018-07-27T14:57:19.386Z,99753.36
2018-07-27T14:59:50.581Z,99744.17
2018-07-27T15:02:21.569Z,99751.75
2018-07-27T15:04:51.951Z,99747.80
2018-07-27T15:07:22.560Z,99747.90
2018-07-27T15:09:52.838Z,99745.20
2018-07-27T15:12:23.907Z,99744.14
2018-07-27T15:14:54.180Z,99738.12
2018-07-27T15:17:24.508Z,99731.28
2018-07-27T15:19:54.865Z,99730.77
2018-07-27T15:22:25.236Z,99724.70
2018-07-27T15:24:55.553Z,99712.70
2018-07-27T15:27:25.904Z,99717.60
2018-07-27T15:29:56.301Z,99712.39
2018-07-27T15:32:26.697Z,99715.94
2018-07-27T15:34:57.144Z,99722.88
2018-07-27T15:37:27.437Z,99726.47
2018-07-27T15:39:57.834Z,99721.89
2018-07-27T15:42:28.132Z,99718.96
2018-07-27T15:44:58.480Z,99707.14
2018-07-27T15:47:28.833Z,99703.98
2018-07-27T15:49:59.112Z,99698.83
2018-07-27T15:52:29.656Z,99704.64
2018-07-27T15:55:00.028Z,99697.72
2018-07-27T15:57:30.584Z,99701.30
2018-07-27T16:00:01.257Z,99688.28
2018-07-27T16:02:31.943Z,99676.52
2018-07-27T16:05:02.488Z,99680.53
2018-07-27T16:07:32.552Z,99677.23
2018-07-27T16:10:03.223Z,99675.14
2018-07-27T16:12:33.743Z,99662.80
2018-07-27T16:15:04.190Z,99661.30
2018-07-27T16:17:34.704Z,99660.47
2018-07-27T16:20:05.439Z,99658.63
2018-07-27T16:22:35.886Z,99640.94
2018-07-27T16:25:06.384Z,99641.91
2018-07-27T16:27:36.845Z,99628.89
2018-07-27T16:30:07.330Z,99632.27
2018-07-27T16:32:37.677Z,99636.73
2018-07-27T16:35:09.069Z,99636.49
2018-07-27T16:37:39.446Z,99630.59
2018-07-27T16:40:10.101Z,99631.38
2018-07-27T16:42:40.817Z,99630.48
2018-07-27T16:45:11.285Z,99636.84
2018-07-27T16:47:41.681Z,99629.14
2018-07-27T16:50:12.342Z,99619.09
2018-07-27T16:52:42.805Z,99625.77
2018-07-27T16:55:13.389Z,99641.56
2018-07-27T16:57:43.833Z,99640.66
2018-07-27T17:00:14.389Z,99638.08
2018-07-27T17:02:45.021Z,99637.93
2018-07-27T17:05:15.554Z,99630.73
2018-07-27T17:07:46.101Z,99629.14
2018-07-27T17:10:16.423Z,99617.54
2018-07-27T17:12:46.941Z,99621.16
2018-07-27T17:15:17.682Z,99636.75
2018-07-27T17:17:48.116Z,99635.38
2018-07-27T17:20:18.560Z,99628.92
2018-07-27T17:22:48.867Z,99630.56
2018-07-27T17:25:19.561Z,99630.94
2018-07-27T17:27:50.081Z,99630.77
2018-07-27T17:30:20.474Z,99632.26
2018-07-27T17:32:50.886Z,99635.87
2018-07-27T17:35:21.256Z,99637.85
2018-07-27T17:37:51.766Z,99637.97
2018-07-27T17:40:22.266Z,99632.31
2018-07-27T17:42:52.631Z,99636.88
2018-07-27T17:45:23.281Z,99638.80
2018-07-27T17:47:53.708Z,99644.50
2018-07-27T17:50:27.024Z,99649.27
2018-07-27T17:52:59.242Z,99655.00
2018-07-27T17:55:29.709Z,99658.94
2018-07-27T17:58:00.941Z,99662.09
2018-07-27T18:00:31.313Z,99667.17
2018-07-27T18:03:01.892Z,99660.47
2018-07-27T18:05:33.165Z,99661.45
2018-07-27T18:08:03.641Z,99664.23
2018-07-27T18:10:33.914Z,99667.30
2018-07-27T18:13:04.271Z,99671.73
2018-07-27T18:15:35.049Z,99668.82
2018-07-27T18:18:06.614Z,99675.19
2018-07-27T18:20:37.425Z,99678.55
2018-07-27T18:23:07.734Z,99679.16
2018-07-27T18:25:38.261Z,99688.23
2018-07-27T18:28:08.669Z,99683.05
2018-07-27T18:30:39.213Z,99684.20
2018-07-27T18:33:09.613Z,99684.50
2018-07-27T18:35:39.944Z,99688.42
2018-07-27T18:38:10.358Z,99684.44
2018-07-27T18:40:40.661Z,99685.08
2018-07-27T18:43:11.046Z,99685.69
2018-07-27T18:45:41.390Z,99681.98
2018-07-27T18:48:11.918Z,99688.91
2018-07-27T18:50:42.313Z,99677.84
2018-07-27T18:53:13.048Z,99678.98
2018-07-27T18:55:43.423Z,99678.94
2018-07-27T18:58:13.851Z,99680.48
2018-07-27T19:00:44.369Z,99686.95
2018-07-27T19:03:14.777Z,99687.77
2018-07-27T19:05:45.670Z,99691.92
2018-07-27T19:08:16.073Z,99694.94
2018-07-27T19:10:46.217Z,99692.41
2018-07-27T19:13:16.203Z,99697.11
2018-07-27T19:15:46.041Z,99693.64
2018-07-27T19:18:16.596Z,99692.28
2018-07-27T19:20:46.466Z,99695.63
2018-07-27T19:23:16.234Z,99692.19
2018-07-27T19:25:46.306Z,99694.91
2018-07-27T19:28:16.669Z,99698.17
2018-07-27T19:30:47.079Z,99695.98
2018-07-27T19:33:17.793Z,99696.81
2018-07-27T19:35:47.661Z,99700.08
2018-07-27T19:38:17.416Z,99700.63
2018-07-27T19:43:18.277Z,99690.86
2018-07-27T19:45:48.112Z,99683.80
2018-07-27T19:48:17.937Z,99687.06
2018-07-27T19:53:16.569Z,99686.05
2018-07-27T19:55:46.286Z,99687.73
2018-07-27T19:58:16.380Z,99684.48
2018-07-27T20:00:46.383Z,99680.73
2018-07-27T20:03:16.287Z,99685.16
2018-07-27T20:05:46.347Z,99683.28
2018-07-27T20:08:16.448Z,99680.23
2018-07-27T20:10:46.762Z,99669.38
2018-07-27T20:13:16.565Z,99683.86
2018-07-27T20:15:46.321Z,99672.23
2018-07-27T20:18:16.089Z,99670.39
2018-07-27T20:20:46.169Z,99671.78
2018-07-27T20:23:16.023Z,99672.06
2018-07-27T20:25:46.105Z,99673.44
2018-07-27T20:28:15.909Z,99671.02
2018-07-27T20:30:45.968Z,99670.27
2018-07-27T20:33:15.841Z,99675.17
2018-07-27T20:35:45.888Z,99675.16
2018-07-27T20:38:15.321Z,99677.26
2018-07-27T20:40:45.180Z,99679.69
2018-07-27T20:43:14.972Z,99679.42
2018-07-27T20:45:45.105Z,99676.44
2018-07-27T20:48:14.856Z,99678.05
2018-07-27T20:50:45.129Z,99678.94
2018-07-27T20:53:14.857Z,99668.94
2018-07-27T20:55:48.302Z,99675.19
2018-07-27T20:58:18.113Z,99668.70
2018-07-27T21:00:47.846Z,99669.27
2018-07-27T21:03:17.615Z,99668.70
2018-07-27T21:05:47.353Z,99660.56
2018-07-27T21:08:17.163Z,99661.08
2018-07-27T21:10:47.445Z,99666.23
2018-07-27T21:13:17.371Z,99664.59
2018-07-27T21:15:47.157Z,99663.75
2018-07-27T21:18:17.120Z,99657.53
2018-07-27T21:20:46.901Z,99648.31
2018-07-27T21:23:16.737Z,99651.89
2018-07-27T21:25:47.388Z,99651.34
2018-07-27T21:28:17.351Z,99645.39
2018-07-27T21:30:47.190Z,99641.89
2018-07-27T21:33:16.987Z,99641.13
2018-07-27T21:35:46.799Z,99636.83
2018-07-27T21:38:16.567Z,99633.82
2018-07-27T21:40:46.733Z,99637.63
2018-07-27T21:43:16.784Z,99643.05
2018-07-27T21:45:46.758Z,99647.92
2018-07-27T21:48:16.704Z,99646.29
2018-07-27T21:50:46.893Z,99652.82
2018-07-27T21:53:16.641Z,99653.62
2018-07-27T21:55:46.497Z,99654.11
2018-07-27T21:58:17.193Z,99643.80
2018-07-27T22:00:46.957Z,99636.46
2018-07-27T22:03:16.459Z,99636.18
2018-07-27T22:05:46.441Z,99633.23
2018-07-27T22:08:16.177Z,99629.98
2018-07-27T22:10:46.284Z,99624.03
2018-07-27T22:13:16.114Z,99624.31
2018-07-27T22:15:46.843Z,99622.41
2018-07-27T22:18:16.640Z,99618.91
2018-07-27T22:20:47.046Z,99624.08
2018-07-27T22:23:17.933Z,99621.66
2018-07-27T22:25:47.405Z,99618.13
2018-07-27T22:28:17.373Z,99613.50
2018-07-27T22:30:47.160Z,99609.71
2018-07-27T22:33:16.893Z,99612.70
2018-07-27T22:35:46.890Z,99607.00
2018-07-27T22:38:17.292Z,99610.27
2018-07-27T22:40:47.171Z,99608.09
2018-07-27T22:43:17.232Z,99610.53
2018-07-27T22:45:47.105Z,99610.56
2018-07-27T22:48:16.828Z,99606.20
2018-07-27T22:50:46.824Z,99607.30
2018-07-27T22:53:16.361Z,99602.13
2018-07-27T22:55:46.465Z,99606.73
2018-07-27T22:58:16.352Z,99599.41
2018-07-27T23:00:46.501Z,99598.06
2018-07-27T23:03:16.332Z,99595.88
2018-07-27T23:05:46.585Z,99596.45
2018-07-27T23:08:16.313Z,99593.17
2018-07-27T23:10:46.430Z,99595.09
2018-07-27T23:13:16.163Z,99590.22
2018-07-27T23:15:46.134Z,99591.03
2018-07-27T23:18:15.974Z,99592.13
2018-07-27T23:20:45.861Z,99592.38
2018-07-27T23:23:15.704Z,99589.44
2018-07-27T23:25:45.789Z,99585.12
2018-07-27T23:28:15.653Z,99586.17
2018-07-27T23:30:45.633Z,99577.53
2018-07-27T23:33:15.353Z,99577.28
2018-07-27T23:35:45.640Z,99571.30
2018-07-27T23:38:15.839Z,99561.78
2018-07-27T23:40:46.037Z,99565.32
2018-07-27T23:43:15.881Z,99560.13
2018-07-27T23:45:45.956Z,99559.09
2018-07-27T23:48:15.721Z,99549.32
2018-07-27T23:50:45.934Z,99552.03
2018-07-27T23:53:15.726Z,99549.04
2018-07-27T23:55:46.096Z,99548.25
2018-07-27T23:58:15.872Z,99543.63
